• Join FlightAware (Why Join?)
  • Login
  • US Flag 
03:13AM EDT


 

Airport Tracker/Info


-or-


 

Live Flight TrackerFlight Track Log ✈ SWA3574 ✈ 09-Aug-2013 ✈ KMCO - KFNT

Flight Track Log - Related Links

Times and Time Zones

All times are in EDT time to prevent confusion due to time zone crossing. See the SWA3574 flight status page for this flight to view local times or setup timezone preferences in your user account.

Time Position Orientation Groundspeed Altitude Reporting Facility
EDT Latitude Longitude Course Direction KTS MPH feet Rate Location/Type
07:49PM 28.3833 -81.2833 139° Southeast 178 205 2,100  Level Orlando TRACON
07:50PM 28.3500 -81.2500 139° Southeast 226 260 5,000 3,000 Climbing Orlando TRACON
07:51PM 28.3833 -81.1833 60° Northeast 273 314 7,900 2,880 Climbing Orlando TRACON
07:52PM 28.4667 -81.2167 341° North 327 376 10,800 2,640 Climbing Orlando TRACON
07:53PM 28.5500 -81.2833 325° Northwest 382 440 13,200 2,580 Climbing Orlando TRACON
07:54PM 28.6500 -81.3333 336° Northwest 396 456 16,000 1,740 Climbing Orlando TRACON
07:56PM 28.8306 -81.4564 329° Northwest 404 465 18,600 1,440 Climbing Jacksonville Center
07:57PM 28.9394 -81.4928 344° North 397 457 20,400 1,560 Climbing Jacksonville Center
07:58PM 29.0611 -81.5314 344° North 417 480 21,800 1,740 Climbing Jacksonville Center
07:59PM 29.1867 -81.5700 345° North 446 513 23,900 1,800 Climbing Jacksonville Center
08:00PM 29.3144 -81.6136 343° North 459 528 25,500 1,560 Climbing Jacksonville Center
08:01PM 29.4442 -81.6525 345° North 472 543 27,100 1,680 Climbing Jacksonville Center
08:02PM 29.5761 -81.6914 346° North 483 556 28,900 1,920 Climbing Jacksonville Center
08:03PM 29.7081 -81.7353 344° North 483 556 31,000 1,980 Climbing Jacksonville Center
08:04PM 29.8358 -81.7744 345° North 477 549 32,900 1,680 Climbing Jacksonville Center
08:05PM 29.9633 -81.8136 345° North 477 549 34,400 1,020 Climbing Jacksonville Center
08:06PM 30.0931 -81.8506 346° North 477 549 35,000 240 Climbing Jacksonville Center
08:07PM 30.2186 -81.8903 345° North 477 549 35,000  Level Jacksonville Center
08:08PM 30.3464 -81.9322 344° North 477 549 35,000  Level Jacksonville Center
08:09PM 30.4719 -81.9742 344° North 477 549 35,000  Level Jacksonville Center
08:10PM 30.6164 -82.0283 342° North 492 566 35,000  Level Jacksonville Center
08:11PM 30.7419 -82.0683 345° North 485 558 35,000  Level Jacksonville Center
08:12PM 30.8697 -82.1133 343° North 479 551 35,000  Level Jacksonville Center
08:13PM 30.9994 -82.1558 344° North 479 551 35,000  Level Jacksonville Center
08:14PM 31.1292 -82.2008 343° North 479 551 35,000  Level Jacksonville Center
08:16PM 31.3542 -82.2736 345° North 495 570 35,000  Level Atlanta Center
08:17PM 31.4861 -82.3172 344° North 490 564 35,000  Level Atlanta Center
08:18PM 31.6161 -82.3611 344° North 484 557 35,000  Level Atlanta Center
08:19PM 31.7442 -82.4050 344° North 479 551 35,000  Level Atlanta Center
08:20PM 31.8678 -82.4469 344° North 479 551 35,000  Level Atlanta Center
08:21PM 31.9936 -82.4911 343° North 474 545 35,000  Level Atlanta Center
08:22PM 32.1194 -82.5331 344° North 474 545 35,000 120 Level Atlanta Center
08:23PM 32.2431 -82.5778 343° North 469 540 35,300 1,020 Climbing Atlanta Center
08:24PM 32.3644 -82.6150 345° North 458 527 37,100 1,740 Climbing Atlanta Center
08:25PM 32.4778 -82.6550 343° North 469 540 38,800 900 Climbing Atlanta Center
08:26PM 32.6036 -82.7050 341° North 449 517 39,000 60 Climbing Atlanta Center
08:27PM 32.7208 -82.7450 344° North 441 507 39,000  Level Atlanta Center
08:28PM 32.8361 -82.7853 344° North 436 502 39,000  Level Atlanta Center
08:29PM 32.9533 -82.8258 344° North 436 502 39,000  Level Atlanta Center
08:30PM 33.0706 -82.8664 344° North 436 502 39,000  Level Atlanta Center
08:31PM 33.1858 -82.9094 343° North 436 502 39,000  Level Atlanta Center
08:32PM 33.2989 -82.9478 344° North 436 502 39,000  Level Atlanta Center
08:33PM 33.4142 -82.9886 344° North 431 496 39,000  Level Atlanta Center
08:34PM 33.5311 -83.0269 345° North 431 496 39,000  Level Atlanta Center
08:35PM 33.6486 -83.0706 343° North 431 496 39,000 60 Level Atlanta Center
08:36PM 33.7636 -83.1092 344° North 431 496 39,200 480 Climbing Atlanta Center
08:37PM 33.8808 -83.1531 343° North 437 503 40,000 360 Climbing Atlanta Center
08:38PM 34.0022 -83.1944 344° North 437 503 40,000  Level Atlanta Center
08:39PM 34.1236 -83.2358 344° North 443 510 40,000  Level Atlanta Center
08:40PM 34.2406 -83.2800 343° North 433 498 40,000  Level Atlanta Center
08:41PM 34.3619 -83.3217 344° North 439 505 40,000  Level Atlanta Center
08:42PM 34.4792 -83.3633 344° North 439 505 40,000  Level Atlanta Center
08:43PM 34.5983 -83.4081 343° North 439 505 40,000  Level Atlanta Center
08:44PM 34.7111 -83.4550 341° North 439 505 40,000  Level Atlanta Center
08:45PM 34.8283 -83.4947 344° North 434 499 40,000  Level Atlanta Center
08:46PM 34.9411 -83.5422 341° North 434 499 40,000  Level Atlanta Center
08:47PM 35.0436 -83.5769 344° North 434 499 40,000  Level Atlanta Center
08:48PM 35.1625 -83.6194 344° North 434 499 40,000  Level Atlanta Center
08:49PM 35.2794 -83.6622 343° North 434 499 40,000  Level Atlanta Center
08:50PM 35.3964 -83.7075 342° North 440 506 40,000  Level Atlanta Center
08:51PM 35.5136 -83.7506 343° North 440 506 40,000  Level Atlanta Center
08:52PM 35.6303 -83.7936 343° North 440 506 40,000  Level Atlanta Center
08:53PM 35.7472 -83.8442 341° North 445 512 40,000  Level Atlanta Center
08:54PM 35.8558 -83.9131 333° Northwest 445 512 40,000  Level Atlanta Center
08:55PM 35.9644 -83.9797 334° Northwest 439 505 40,000  Level Atlanta Center
08:56PM 36.0728 -84.0439 334° Northwest 434 499 40,000  Level Atlanta Center
08:56PM 36.1386 -84.0822 335° Northwest 433 498 40,000  Level Indianapolis Center
08:57PM 36.2686 -84.1581 335° Northwest 431 496 40,000  Level Indianapolis Center
08:58PM 36.3808 -84.2111 339° North 431 496 40,000  Level Indianapolis Center
08:59PM 36.4950 -84.2581 342° North 433 498 40,000  Level Indianapolis Center
09:00PM 36.6039 -84.3019 342° North 430 495 40,000  Level Indianapolis Center
09:01PM 36.7186 -84.3489 342° North 431 496 40,000  Level Indianapolis Center
09:02PM 36.8344 -84.3961 342° North 433 498 40,000  Level Indianapolis Center
09:03PM 36.9583 -84.3981 359° North 451 519 40,000  Level Indianapolis Center
09:04PM 37.1056 -84.3922 North 453 521 40,000  Level Indianapolis Center
09:05PM 37.2339 -84.3858 North 456 525 40,000  Level Indianapolis Center
09:06PM 37.3622 -84.3794 North 461 531 40,000  Level Indianapolis Center
09:07PM 37.4928 -84.3808 360° North 467 537 40,000  Level Indianapolis Center
09:09PM 37.6231 -84.3822 360° North 466 536 40,000  Level Indianapolis Center
09:10PM 37.7542 -84.3833 360° North 468 539 40,000  Level Indianapolis Center
09:11PM 37.8825 -84.3839 360° North 463 533 40,000  Level Indianapolis Center
09:12PM 38.0128 -84.3836 360° North 466 536 40,000  Level Indianapolis Center
09:13PM 38.1433 -84.3856 359° North 468 539 40,000  Level Indianapolis Center
09:14PM 38.2975 -84.3850 360° North 472 543 40,000  Level Indianapolis Center
09:15PM 38.4281 -84.3856 360° North 469 540 40,000  Level Indianapolis Center
09:16PM 38.5569 -84.3886 359° North 463 533 40,000  Level Indianapolis Center
09:17PM 38.6875 -84.3875 360° North 466 536 40,000  Level Indianapolis Center
09:18PM 38.8167 -84.3894 359° North 466 536 40,000 -540 Level Indianapolis Center
09:19PM 38.9469 -84.3897 360° North 466 536 39,000 -960 Descending Indianapolis Center
09:20PM 39.0794 -84.3897 360° North 472 543 38,100 -960 Descending Indianapolis Center
09:21PM 39.2153 -84.3911 360° North 481 554 37,100 -960 Descending Indianapolis Center
09:22PM 39.3489 -84.3917 360° North 484 557 36,200 -960 Descending Indianapolis Center
09:23PM 39.4803 -84.3931 360° North 478 550 35,200 -600 Descending Indianapolis Center
09:24PM 39.6144 -84.3942 360° North 482 555 35,000 -300 Descending Indianapolis Center
09:25PM 39.7758 -84.3944 360° North 486 559 34,700 -660 Descending Indianapolis Center
09:26PM 39.9097 -84.3958 360° North 485 558 33,700 -900 Descending Indianapolis Center
09:27PM 40.0431 -84.3961 360° North 483 556 32,900 -840 Descending Indianapolis Center
09:28PM 40.1789 -84.4000 359° North 488 562 32,000 -480 Descending Indianapolis Center
09:29PM 40.3147 -84.4042 359° North 491 565 32,000  Level Indianapolis Center
09:30PM 40.4506 -84.4083 359° North 491 565 32,000  Level Indianapolis Center
09:31PM 40.5839 -84.4103 359° North 484 557 32,000 -300 Level Indianapolis Center
09:32PM 40.7164 -84.4150 358° North 480 552 31,500 -1,980 Descending Indianapolis Center
09:33PM 40.8767 -84.4175 359° North 480 552 28,000 -2,220 Descending Indianapolis Center
09:34PM 41.0106 -84.4217 359° North 484 557 27,000 -1,200 Descending Indianapolis Center
09:35PM 41.1453 -84.4267 358° North 484 557 25,600 -1,440 Descending Indianapolis Center
09:36PM 41.2750 -84.4292 359° North 475 547 24,100 -1,200 Descending Indianapolis Center
09:37PM 41.4261 -84.4356 358° North 457 526 23,100 -1,080 Descending Cleveland Center
09:38PM 41.5492 -84.4344 360° North 452 520 21,900 -1,140 Descending Cleveland Center
09:39PM 41.6697 -84.4417 357° North 445 512 20,900 -1,020 Descending Cleveland Center
09:40PM 41.7867 -84.4433 359° North 430 495 19,900 -1,020 Descending Cleveland Center
09:41PM 41.9031 -84.4475 358° North 418 481 18,900 -1,020 Descending Cleveland Center
09:42PM 42.0156 -84.4514 359° North 412 474 17,900 -960 Descending Cleveland Center
09:43PM 42.1303 -84.4556 358° North 412 474 17,000 -1,260 Descending Cleveland Center
09:44PM 42.2239 -84.4586 359° North 391 450 15,400 -1,680 Descending Cleveland Center
09:45PM 42.3278 -84.4058 21° North 377 434 13,700 -2,100 Descending Cleveland Center
09:46PM 42.4219 -84.3383 28° Northeast 377 434 11,200 -1,740 Descending Cleveland Center
09:47PM 42.5117 -84.2678 30° Northeast 372 428 10,300 -1,020 Descending Cleveland Center
09:48PM 42.5767 -84.1869 42° Northeast 334 384 9,200 -1,380 Descending Cleveland Center
09:49PM 42.6358 -84.1000 47° Northeast 314 361 7,600 -1,560 Descending Cleveland Center
09:50PM 42.6903 -84.0183 48° Northeast 301 346 6,100 -1,380 Descending Cleveland Center
09:51PM 42.7406 -83.9419 48° Northeast 291 335 4,900 -1,200 Descending Cleveland Center
09:53PM 42.8808 -83.8431 51° Northeast  Level FlightAware Approximate
10:00PM 42.9500 -83.7333 48° Northeast  Level FlightAware Approximate
10:01PM 42.9654 -83.7437 48° Northeast  Level Estimated
10:02PM 42.9654 -83.7437 48° Northeast  Level Estimated
10:03PM 42.9654 -83.7437 48° Northeast  Level Estimated
10:04PM 42.9654 -83.7437 48° Northeast  Level Estimated